Date,TemperatureHighF,TemperatureAvgF,TemperatureLowF,DewpointHighF,DewpointAvgF,DewpointLowF,HumidityHigh,HumidityAvg,HumidityLow,PressureMaxIn,PressureMinIn,WindSpeedMaxMPH,WindSpeedAvgMPH,GustSpeedMaxMPH,PrecipitationSumIn
2013-1-1,40,37,31,32,29,21,83,74,66,30.05,29.91,8,3,11,0.01
2013-1-2,31,28,25,22,18,15,76,66,55,30.25,30.01,17,4,20,0.00
2013-1-3,33,27,20,22,18,15,83,69,58,30.25,30.14,10,3,13,0.00
2013-1-4,38,33,30,25,23,21,73,65,58,30.17,30.06,19,8,22,0.00
2013-1-5,38,32,27,26,23,20,86,70,57,30.39,30.11,13,3,18,0.00
2013-1-6,46,37,26,34,29,25,95,74,53,30.22,30.02,12,3,17,0.00
2013-1-7,43,37,25,31,29,23,91,71,57,30.43,30.14,9,3,18,0.00
2013-1-8,49,34,24,34,28,22,93,81,55,30.42,30.37,7,2,11,0.00
2013-1-9,45,35,24,39,32,23,95,88,76,30.40,30.21,9,2,13,0.01
2013-1-10,46,40,33,33,30,28,89,68,53,30.59,30.35,12,3,14,0.00
2013-1-11,45,38,31,41,34,29,97,86,76,30.52,30.16,9,2,14,0.42
2013-1-13,48,47,46,48,47,45,99,98,98,30.07,29.98,5,2,9,0.01
2013-1-14,51,48,40,50,44,37,99,88,67,30.31,29.93,9,2,13,0.21
2013-1-15,39,37,33,38,33,29,95,84,74,30.37,30.21,7,2,9,0.27
2013-1-16,37,34,32,36,33,31,96,95,93,30.18,29.85,8,2,13,0.70
2013-1-17,40,38,36,36,32,29,97,80,69,30.14,29.97,15,2,20,0.01
2013-1-18,35,30,26,30,18,10,79,60,42,30.50,30.04,15,5,24,0.00
2013-1-19,50,39,29,31,26,19,75,62,46,30.41,29.93,27,8,27,0.00
2013-1-20,54,41,28,33,24,15,66,52,30,30.09,29.79,25,8,30,0.00
2013-1-21,33,27,23,23,16,12,82,63,53,30.13,29.88,11,3,22,0.00
2013-1-22,24,17,13,17,0,-3,77,47,39,30.30,29.94,20,8,27,0.00
2013-1-23,19,14,10,7,1,-2,80,57,43,30.34,30.19,15,4,21,0.00
2013-1-24,25,18,12,9,5,0,80,57,35,30.50,30.15,23,5,24,0.00
2013-1-25,20,16,7,15,6,2,90,69,46,30.51,30.10,8,2,14,0.00
2013-1-26,26,19,11,15,13,8,91,79,61,30.44,30.11,11,3,16,0.00
2013-1-27,33,21,9,20,14,7,91,76,50,30.61,30.44,9,2,12,0.00
2013-1-28,35,32,23,34,29,19,97,91,78,30.52,30.06,13,4,17,0.10
2013-1-29,59,45,35,51,42,34,97,90,76,30.15,30.02,8,2,11,0.01
2013-1-30,65,54,43,60,52,42,98,93,83,29.99,29.29,22,7,32,1.72
2013-1-31,57,40,28,56,28,12,98,64,43,29.87,29.11,28,13,39,1.06
2013-2-1,29,26,19,19,10,5,72,54,42,30.34,29.84,24,8,29,0.00
2013-2-2,25,21,16,23,13,5,92,71,53,30.36,30.05,15,5,19,0.00
2013-2-3,30,26,18,27,22,16,95,86,67,30.05,29.83,15,2,19,0.06
2013-2-4,31,26,21,22,15,11,77,64,54,30.08,29.93,16,4,22,0.00
2013-2-5,34,31,28,30,27,23,95,86,78,29.96,29.89,5,1,7,0.00
2013-2-6,38,31,24,30,26,20,97,81,59,30.37,29.95,10,2,18,0.01
2013-2-7,35,30,22,23,19,14,90,67,43,30.49,30.27,9,3,11,0.00
2013-2-8,37,34,31,35,31,23,97,89,71,30.26,29.74,14,5,18,0.11
2013-2-9,33,28,24,23,18,15,76,68,57,30.41,29.88,26,8,38,0.00
2013-2-10,41,30,17,25,16,12,88,60,34,30.51,30.30,9,2,12,0.01
2013-2-11,46,39,33,45,37,25,98,92,70,30.28,29.69,9,4,14,0.31
2013-2-12,44,39,30,33,28,26,88,66,53,30.01,29.80,16,4,24,0.00
2013-2-13,42,33,25,32,28,23,97,82,60,29.99,29.69,7,1,11,0.04
2013-2-14,44,36,32,33,30,26,97,79,50,30.02,29.76,12,2,13,0.05
2013-2-15,54,42,32,37,33,30,96,74,46,30.03,29.93,15,4,18,0.11
2013-2-16,34,32,29,32,28,17,98,84,61,30.01,29.83,12,3,19,0.17
2013-2-17,29,26,21,18,11,4,76,54,37,30.15,29.81,22,9,33,0.01
2013-2-18,36,27,19,19,12,6,64,54,36,30.36,30.16,15,5,27,0.00
2013-2-19,41,37,31,39,30,18,96,77,59,30.18,29.71,18,7,30,0.10
2013-2-20,35,28,23,23,15,11,71,58,47,30.12,29.82,19,8,27,0.00
2013-2-21,34,28,23,19,15,12,69,60,51,30.34,30.09,17,6,29,0.00
2013-2-22,34,29,24,30,22,17,88,75,64,30.41,30.25,8,3,11,0.00
2013-2-23,44,38,32,43,37,30,98,96,88,30.26,29.83,6,1,8,0.04
2013-2-24,43,38,31,39,30,21,98,77,57,30.09,29.80,17,5,27,0.01
2013-2-25,45,35,28,30,25,21,84,67,50,30.24,30.09,9,2,13,0.00
2013-2-26,43,36,27,36,31,24,94,82,66,30.26,29.70,23,6,29,0.30
2013-2-27,49,43,38,40,37,34,96,83,63,29.69,29.52,18,6,30,0.05
2013-2-28,44,40,32,36,32,27,90,77,54,29.70,29.61,13,4,20,0.01
2013-3-1,42,38,32,32,30,27,90,72,61,29.86,29.69,12,4,17,0.00
2013-3-2,38,34,31,26,23,22,78,66,54,29.86,29.78,12,5,19,0.00
2013-3-3,35,31,28,26,21,17,80,66,57,29.86,29.78,15,7,22,0.00
2013-3-4,36,31,27,22,20,17,70,63,54,30.03,29.86,24,7,27,0.00
2013-3-5,45,34,27,31,25,20,83,69,54,30.07,29.92,12,3,14,0.00
2013-3-6,39,37,34,36,32,27,93,83,69,30.00,29.75,17,8,30,0.24
2013-3-7,46,39,33,29,27,23,79,63,48,30.14,30.00,15,6,26,0.00
2013-3-8,43,37,32,29,25,22,75,62,57,30.29,30.12,18,8,30,0.00
2013-3-9,59,42,30,30,25,22,86,55,25,30.34,30.25,10,2,13,0.00
2013-3-10,57,44,29,35,28,21,89,59,26,30.35,30.24,16,4,17,0.00
2013-3-11,55,47,37,48,42,35,96,86,71,30.28,29.98,19,6,20,0.00
2013-3-12,56,51,42,55,46,32,96,84,67,29.97,29.71,20,8,24,1.06
2013-3-13,46,39,31,35,28,19,87,67,39,30.01,29.87,14,5,26,0.01
2013-3-14,40,35,29,21,17,14,71,50,37,30.06,29.97,21,8,29,0.00
2013-3-15,52,39,26,33,24,13,79,56,42,30.07,29.76,21,6,27,0.00
2013-3-16,44,36,33,34,31,26,95,81,60,29.95,29.74,10,3,15,0.10
2013-3-17,39,34,30,32,26,22,94,76,54,30.30,29.94,10,2,15,0.00
2013-3-18,36,32,30,33,25,16,95,74,51,30.36,29.90,12,4,18,0.26
2013-3-19,52,40,34,39,31,18,97,75,33,29.91,29.71,23,5,30,0.18
2013-3-20,46,38,30,26,21,17,66,51,33,29.96,29.79,22,7,29,0.00
2013-3-21,36,32,28,28,18,10,83,57,39,29.85,29.73,15,5,22,0.00
2013-3-22,41,33,26,26,21,15,81,62,46,29.99,29.83,20,7,23,0.00
2013-3-23,45,37,29,26,22,21,74,57,42,30.00,29.92,20,5,24,0.00
2013-3-24,44,36,24,29,23,21,87,62,40,30.01,29.69,9,2,13,0.00
2013-3-25,37,34,32,34,31,26,95,88,66,29.69,29.51,8,3,13,0.34
2013-3-26,49,40,32,35,32,27,94,77,42,29.95,29.68,12,4,17,0.00
2013-3-27,48,41,36,32,29,27,80,63,46,30.08,29.95,19,5,24,0.00
2013-3-28,46,40,32,33,29,27,84,65,49,30.20,30.05,12,4,19,0.00
2013-3-29,52,44,36,34,30,27,74,58,39,30.22,30.12,11,4,19,0.00
2013-3-30,56,42,28,34,29,25,92,63,31,30.23,30.11,9,2,14,0.00
2013-3-31,52,46,35,46,38,29,97,75,54,30.13,29.73,14,4,21,0.02
2013-4-1,59,44,33,45,32,15,98,69,35,29.97,29.71,26,6,33,0.01
2013-4-2,43,36,28,20,16,14,69,45,31,30.16,29.98,12,4,27,0.00
2013-4-3,45,36,27,21,16,11,70,47,28,30.36,30.16,21,5,25,0.00
2013-4-4,48,37,24,27,19,15,73,50,31,30.44,30.09,14,4,17,0.00
2013-4-5,60,48,36,36,28,16,91,52,23,30.09,29.80,18,5,24,0.00
2013-4-6,53,42,33,26,20,16,63,43,25,30.34,30.05,11,3,15,0.00
2013-4-7,61,51,39,45,37,23,83,60,47,30.29,29.99,20,9,29,0.00
2013-4-8,76,62,45,52,47,41,85,59,38,30.08,29.94,17,4,20,0.00
2013-4-9,80,70,55,55,53,48,78,55,39,30.04,29.89,17,6,22,0.00
2013-4-10,86,73,56,62,56,50,90,57,40,29.92,29.74,17,7,34,0.09
2013-4-11,78,63,51,63,57,46,95,80,55,29.90,29.80,14,4,23,0.00
2013-4-12,51,47,45,47,45,43,96,93,84,29.89,29.66,19,6,26,0.56
2013-4-13,60,50,38,44,39,34,98,68,42,29.98,29.80,15,3,18,0.00
2013-4-14,60,49,36,41,35,28,94,62,36,30.16,29.98,15,3,20,0.00
2013-4-15,62,53,48,47,41,33,79,65,54,30.32,30.14,15,5,17,0.00
2013-4-16,69,59,49,58,52,45,86,78,67,30.32,30.11,18,7,28,0.00
2013-4-17,69,60,54,57,51,44,97,75,42,30.25,30.09,9,2,15,0.00
2013-4-18,64,58,54,60,51,39,92,79,53,30.27,30.03,13,6,19,0.06
2013-4-19,73,64,52,65,60,51,96,88,74,30.02,29.58,24,9,33,1.59
2013-4-20,55,49,40,48,34,27,91,60,37,30.35,29.77,18,5,24,0.05
2013-4-21,52,42,31,36,27,22,80,56,36,30.61,30.36,11,2,17,0.00
2013-4-22,54,45,33,36,33,31,92,66,44,30.61,30.45,18,4,19,0.00
2013-4-23,56,48,42,44,40,35,92,74,61,30.45,30.14,11,4,15,0.00
2013-4-24,68,54,37,58,49,36,97,84,64,30.14,29.78,14,4,26,0.09
2013-4-25,60,50,41,46,34,29,84,57,32,30.30,29.97,19,5,30,0.01
2013-4-26,61,49,36,40,35,26,95,64,27,30.46,30.30,11,2,15,0.00
2013-4-27,68,52,34,40,36,31,94,58,29,30.45,30.29,6,1,10,0.00
2013-4-28,66,56,42,45,41,36,90,59,36,30.30,30.18,18,4,21,0.01
2013-4-29,58,54,50,56,51,38,96,89,57,30.19,30.09,10,4,15,0.31
2013-4-30,68,59,50,53,48,36,96,71,44,30.31,30.14,10,5,17,0.00
2013-5-1,70,56,40,43,37,31,88,54,26,30.45,30.31,9,3,15,0.00
2013-5-2,71,56,39,49,43,37,95,67,37,30.46,30.32,9,2,12,0.00
2013-5-3,66,55,44,45,42,36,91,63,36,30.41,30.32,14,3,18,0.00
2013-5-4,69,55,38,47,41,37,96,65,34,30.36,30.20,12,2,16,0.00
2013-5-5,65,52,38,42,40,36,94,65,41,30.27,30.17,11,3,18,0.00
2013-5-6,66,54,39,55,48,37,96,82,66,30.23,30.11,11,3,16,0.00
2013-5-7,70,60,53,61,56,51,96,85,68,30.12,30.01,14,5,22,0.15
2013-5-8,72,63,58,61,56,48,96,81,47,30.03,29.91,13,4,21,0.06
2013-5-9,68,61,54,59,56,52,95,85,69,29.98,29.92,7,2,12,0.01
2013-5-10,80,66,51,62,56,50,97,76,41,30.02,29.88,13,3,20,0.91
2013-5-11,70,66,61,66,62,58,97,89,80,29.81,29.71,11,4,17,0.35
2013-5-12,62,56,48,58,40,28,89,58,33,30.01,29.73,19,5,26,0.00
2013-5-13,53,47,41,37,31,25,80,55,35,30.16,30.00,18,4,20,0.00
2013-5-14,59,48,33,45,32,27,92,60,30,30.20,30.05,10,2,17,0.04
2013-5-15,71,59,49,59,52,42,91,78,65,30.08,29.71,9,3,20,0.06
2013-5-16,81,67,56,67,59,54,97,79,41,29.89,29.73,12,3,16,0.05
2013-5-17,76,66,53,56,46,41,83,52,31,30.17,29.89,11,2,14,0.00
2013-5-18,69,62,58,57,52,47,94,70,52,30.25,30.17,8,3,17,0.04
2013-5-19,65,61,58,62,60,56,96,93,89,30.25,30.13,9,4,13,0.00
2013-5-20,79,70,62,68,65,61,98,86,69,30.14,29.98,10,3,15,0.00
2013-5-21,82,74,65,72,68,64,97,83,68,29.98,29.86,12,4,16,0.00
2013-5-22,87,76,67,73,69,65,97,80,54,29.91,29.80,15,4,22,0.01
2013-5-23,76,70,63,70,66,61,96,88,78,29.88,29.74,18,5,20,0.86
2013-5-24,63,55,46,62,49,38,97,82,64,30.10,29.71,20,7,25,0.05
2013-5-25,62,53,45,40,36,35,78,55,36,30.12,30.03,22,8,31,0.01
2013-5-26,69,57,47,45,38,34,83,51,30,30.22,30.09,18,5,23,0.00
2013-5-27,70,57,40,49,43,38,96,63,33,30.28,30.17,11,2,16,0.00
2013-5-28,66,60,55,63,57,49,96,89,74,30.21,30.09,7,1,10,0.25
2013-5-29,87,75,61,69,65,60,98,74,46,30.10,30.03,15,4,20,0.00
2013-5-30,90,78,64,69,66,63,95,69,42,30.16,30.08,10,3,15,0.00
2013-5-31,89,79,66,69,66,58,95,68,36,30.13,30.00,13,4,20,0.00
2013-6-1,88,79,70,72,68,65,86,70,53,30.02,29.89,12,5,19,0.00
2013-6-2,78,75,71,69,68,66,85,78,74,29.89,29.81,11,6,16,0.00
2013-6-3,80,72,64,67,64,57,96,77,54,29.91,29.81,12,3,14,0.08
2013-6-4,73,64,54,58,47,43,84,56,36,30.12,29.92,10,3,16,0.00
2013-6-5,77,65,49,54,48,40,95,59,32,30.21,30.06,10,2,13,0.00
2013-6-6,70,64,60,63,56,48,95,76,47,30.11,29.92,12,4,18,0.42
2013-6-7,68,65,61,67,64,60,98,96,91,29.91,29.61,12,3,16,1.33
2013-6-8,75,68,61,65,62,59,97,83,63,30.09,29.66,10,3,13,0.02
2013-6-9,80,69,57,66,61,56,97,76,51,30.20,30.10,8,1,12,0.00
2013-6-10,76,70,65,73,68,64,97,92,79,30.13,29.78,15,4,19,1.58
2013-6-11,78,72,66,68,65,61,95,79,64,29.81,29.72,18,6,22,0.01
2013-6-12,80,72,61,67,63,59,95,73,53,29.85,29.80,14,3,19,0.00
2013-6-13,81,72,60,70,64,58,94,78,63,29.82,29.41,14,5,22,0.23
2013-6-14,77,65,57,58,55,52,93,72,46,29.95,29.57,13,5,19,0.01
2013-6-15,79,68,55,61,56,51,96,70,39,30.06,29.95,10,2,13,0.00
2013-6-16,80,69,57,69,61,55,94,79,55,30.02,29.85,18,4,22,0.07
2013-6-17,83,72,65,71,67,63,95,84,60,29.94,29.86,11,2,23,0.62
2013-6-18,77,68,64,72,66,63,97,91,81,29.91,29.81,11,1,18,0.36
2013-6-19,78,68,62,64,57,51,97,71,42,30.15,29.89,9,2,13,0.00
2013-6-20,78,69,57,63,59,55,93,73,53,30.27,30.16,11,2,16,0.00
2013-6-21,80,70,57,59,55,52,90,61,42,30.31,30.23,8,2,13,0.00
2013-6-22,84,72,59,69,63,54,94,74,55,30.26,30.11,16,4,16,0.00
2013-6-23,83,75,64,73,69,63,95,81,65,30.19,30.05,11,3,15,0.00
2013-6-24,89,76,68,73,70,65,97,82,52,30.10,29.99,9,2,16,0.16
2013-6-25,89,77,66,74,69,64,97,79,52,30.02,29.85,15,3,32,0.02
2013-6-26,87,76,66,73,68,64,96,79,56,29.89,29.77,17,3,26,0.27
2013-6-27,86,74,69,74,71,69,99,89,66,29.82,29.57,11,3,27,1.14
2013-6-28,82,74,69,71,69,68,96,85,64,29.58,29.47,10,4,16,0.02
2013-6-29,83,75,65,69,66,62,97,75,50,29.70,29.49,8,2,15,0.01
2013-6-30,82,76,70,75,71,67,97,84,63,29.86,29.70,11,3,17,0.02
2013-7-1,79,75,70,74,72,68,97,90,80,29.99,29.85,10,3,18,0.28
2013-7-2,81,76,74,75,73,71,93,88,78,30.16,29.99,14,6,20,0.02
2013-7-3,83,76,72,76,73,70,93,88,74,30.24,30.16,10,4,14,0.05
2013-7-4,85,79,73,76,73,71,96,83,70,30.25,30.16,13,5,19,0.00
2013-7-5,87,80,74,77,74,72,94,82,67,30.21,30.10,13,4,16,0.00
2013-7-6,90,81,73,77,74,71,94,80,59,30.17,30.04,8,3,12,0.00
2013-7-7,88,78,70,77,72,68,95,81,62,30.09,29.96,16,3,26,0.07
2013-7-8,83,74,68,72,69,64,97,85,63,30.08,30.02,13,2,23,0.03
2013-7-9,82,76,70,75,71,68,95,86,75,30.09,30.00,11,1,13,0.35
2013-7-10,85,78,73,77,74,71,95,86,72,30.00,29.82,11,4,15,0.19
2013-7-11,83,76,72,73,69,63,95,79,62,29.92,29.82,10,2,14,0.02
2013-7-12,72,70,68,70,66,61,95,86,70,30.02,29.91,6,2,16,0.67
2013-7-13,84,76,69,74,71,68,97,86,70,30.29,30.02,10,3,13,0.12
2013-7-14,87,79,70,75,73,69,98,81,59,30.34,30.26,10,2,13,0.00
2013-7-15,93,81,70,75,72,68,97,78,53,30.29,30.16,7,1,12,0.00
2013-7-16,91,82,73,75,72,68,97,74,48,30.23,30.15,7,2,13,0.00
2013-7-17,94,82,70,75,72,69,97,74,44,30.21,30.08,6,1,11,0.00
2013-7-18,92,83,73,80,76,71,95,78,58,30.09,29.98,8,2,10,0.00
2013-7-19,92,84,77,80,76,68,95,77,60,30.00,29.83,12,4,18,0.00
2013-7-20,88,80,73,76,72,69,88,75,59,29.86,29.77,14,4,19,0.00
2013-7-21,86,78,71,74,71,68,93,78,61,29.94,29.85,5,1,7,0.01
2013-7-22,86,78,71,75,72,70,96,82,65,29.93,29.76,11,2,13,0.55
2013-7-23,84,76,70,74,71,68,98,85,61,29.77,29.61,13,3,18,0.50
2013-7-24,78,72,65,68,64,54,97,77,53,29.95,29.66,10,3,15,0.00
2013-7-25,73,65,56,63,57,52,90,76,67,30.04,29.95,7,2,12,0.00
2013-7-26,80,71,63,63,61,55,95,72,42,30.08,30.01,8,2,13,0.00
2013-7-27,82,72,64,70,66,62,95,82,62,30.05,29.91,15,3,19,0.30
2013-7-28,81,74,68,72,68,65,94,83,63,29.96,29.88,10,4,13,0.04
2013-7-29,79,70,62,69,61,55,97,74,45,30.14,29.97,11,2,15,0.18
2013-7-30,78,69,58,63,59,56,95,74,50,30.22,30.14,10,2,14,0.00
2013-7-31,79,70,58,67,63,57,97,80,59,30.16,30.02,10,2,14,0.00
2013-8-1,78,71,67,72,68,65,97,90,80,30.02,29.82,7,1,14,1.08
2013-8-2,81,73,65,68,65,62,99,78,55,29.94,29.83,16,3,20,0.00
2013-8-3,74,69,64,67,65,63,96,86,75,29.95,29.89,9,2,15,0.05
2013-8-4,76,68,58,62,58,55,98,75,48,30.01,29.89,12,3,22,0.00
2013-8-5,76,66,54,59,55,49,97,71,42,30.11,30.02,7,1,12,0.00
2013-8-6,72,66,58,65,61,55,95,84,67,30.10,30.04,10,3,17,0.00
2013-8-7,76,71,66,71,68,64,96,90,83,30.10,30.02,9,3,13,0.18
2013-8-8,83,75,68,75,72,67,98,89,76,30.03,29.97,15,4,28,0.22
2013-8-9,83,78,74,76,74,71,95,87,75,29.98,29.82,13,6,17,0.02
2013-8-10,81,74,66,72,66,63,95,78,54,30.06,29.91,8,2,11,0.00
2013-8-11,81,72,61,69,64,60,98,79,56,30.13,30.01,7,2,9,0.00
2013-8-12,83,75,68,72,68,65,96,80,55,30.03,29.91,6,1,8,0.00
2013-8-13,80,71,66,71,68,63,98,89,70,29.90,29.72,8,2,11,2.20
2013-8-14,72,64,56,61,53,49,91,68,50,30.08,29.81,15,4,21,0.00
2013-8-15,76,63,50,59,53,48,97,75,43,30.19,30.09,7,1,13,0.00
2013-8-16,78,65,52,60,56,50,97,74,44,30.20,30.14,5,1,9,0.01
2013-8-17,80,68,54,63,58,53,97,73,45,30.27,30.21,7,1,9,0.00
2013-8-18,70,66,61,63,61,59,94,84,72,30.26,30.16,7,1,11,0.02
2013-8-19,72,66,59,67,62,58,97,89,80,30.17,30.07,5,1,11,0.00
2013-8-20,82,70,60,72,65,59,99,85,52,30.17,30.09,6,1,12,0.01
2013-8-21,85,72,59,76,67,59,99,84,56,30.20,30.05,6,1,12,0.03
2013-8-22,83,76,71,73,71,68,96,84,66,30.07,29.90,10,3,14,0.00
2013-8-23,77,69,60,68,65,59,97,85,62,30.12,29.93,7,1,11,0.00
2013-8-24,79,67,54,60,57,53,98,74,42,30.35,30.12,8,1,13,0.01
2013-8-25,78,66,52,64,57,51,98,76,48,30.42,30.26,9,2,12,0.01
2013-8-26,83,72,59,68,62,56,90,72,56,30.26,29.95,13,4,17,0.00
2013-8-27,86,77,68,71,68,65,93,76,57,29.95,29.86,10,2,13,0.00
2013-8-28,79,73,69,75,71,68,97,93,82,29.89,29.81,8,1,9,0.10
2013-8-29,82,74,68,71,70,68,97,87,68,30.01,29.86,9,2,12,0.00
2013-8-30,83,74,69,75,70,66,93,85,70,30.02,29.87,10,4,13,0.00
2013-8-31,85,77,70,76,72,68,94,85,70,29.88,29.78,11,4,15,0.02
2013-9-1,86,79,72,75,73,71,97,84,65,29.84,29.75,8,2,10,0.00
2013-9-2,87,77,68,75,71,66,97,83,61,29.78,29.70,8,2,25,0.64
2013-9-3,79,72,64,69,62,56,98,74,50,29.94,29.71,11,3,18,0.00
2013-9-4,78,67,56,60,57,54,95,72,49,30.07,29.94,12,2,14,0.00
2013-9-5,78,66,55,63,56,50,95,72,40,30.16,29.99,11,2,18,0.00
2013-9-6,70,60,50,52,46,38,93,65,32,30.27,30.16,9,2,11,0.00
2013-9-7,77,62,46,62,53,45,96,75,44,30.16,29.93,8,1,11,0.00
2013-9-8,80,70,60,68,61,46,94,75,58,30.08,29.88,14,3,15,0.00
2013-9-9,74,62,46,64,55,45,96,78,62,30.22,30.09,8,2,12,0.00
2013-9-10,87,77,67,76,71,64,94,83,66,30.17,30.06,13,4,15,0.00
2013-9-11,90,80,70,78,73,69,96,79,58,30.13,29.99,15,3,21,0.00
2013-9-12,85,74,68,76,71,66,98,89,72,29.98,29.72,12,2,25,0.60
2013-9-13,73,67,58,68,58,49,98,76,49,29.92,29.67,11,4,19,0.01
2013-9-14,62,56,48,51,48,46,94,75,59,30.17,29.93,12,4,18,0.00
2013-9-15,72,57,42,58,50,41,97,79,53,30.25,30.09,7,2,12,0.00
2013-9-16,69,62,56,59,56,50,95,81,58,30.26,30.04,9,2,14,0.15
2013-9-17,66,54,44,50,43,40,94,70,44,30.44,30.27,11,2,17,0.00
2013-9-18,68,54,42,52,46,41,97,76,41,30.36,30.21,9,1,10,0.00
2013-9-19,75,59,43,58,51,42,97,78,49,30.22,30.08,6,1,11,0.00
2013-9-20,77,64,50,62,57,49,97,79,58,30.10,29.98,8,2,14,0.01
2013-9-21,75,65,57,65,60,54,97,84,60,29.99,29.69,14,5,31,0.75
2013-9-22,67,60,51,61,53,46,97,77,53,29.95,29.70,14,3,17,0.01
2013-9-23,63,55,46,48,45,42,93,70,54,30.08,29.95,14,3,16,0.00
2013-9-24,70,54,40,51,46,39,97,78,46,30.12,29.95,10,2,16,0.00
2013-9-25,74,55,42,52,47,41,97,77,38,29.99,29.89,9,1,10,0.01
2013-9-26,74,58,45,58,52,44,97,81,50,30.09,29.95,4,1,8,0.00
2013-9-27,71,63,55,58,55,52,93,78,53,30.26,30.09,9,2,11,0.00
2013-9-28,72,61,54,56,53,51,95,78,50,30.32,30.23,7,1,14,0.00
2013-9-29,71,58,46,58,51,45,97,81,54,30.23,30.08,6,1,10,0.00
2013-9-30,73,58,46,57,52,45,98,81,48,30.10,29.99,7,1,13,0.01
2013-10-1,78,62,48,63,56,48,97,81,52,30.07,29.95,11,2,14,0.00
2013-10-2,82,66,52,64,59,50,97,80,53,30.06,29.97,11,2,16,0.00
2013-10-3,81,68,55,66,61,54,98,80,55,30.13,30.04,6,1,10,0.00
2013-10-4,83,70,59,68,64,58,97,83,55,30.09,29.99,6,1,14,0.00
2013-10-5,85,73,62,69,66,61,97,80,55,30.09,29.99,8,1,13,0.00
2013-10-6,82,72,66,71,67,64,96,84,62,30.04,29.93,9,3,16,0.00
2013-10-7,73,65,54,70,62,47,96,89,76,30.04,29.75,17,6,37,0.78
2013-10-8,65,55,45,50,47,44,97,78,48,30.32,30.04,9,1,16,0.00
2013-10-9,59,53,46,50,48,44,97,81,66,30.37,30.26,11,2,15,0.00
2013-10-10,57,55,51,56,52,48,97,91,77,30.25,30.01,13,4,17,1.61
2013-10-11,63,59,55,60,58,54,98,95,90,30.05,29.97,9,3,13,3.12
2013-10-12,69,64,60,60,54,47,91,72,47,30.21,30.03,13,5,18,0.00
2013-10-13,67,60,50,56,52,48,92,76,58,30.36,30.20,11,5,18,0.00
2013-10-14,68,56,48,54,51,47,96,83,56,30.36,30.24,5,1,8,0.00
2013-10-15,72,57,45,55,50,44,98,79,46,30.25,30.11,7,1,10,0.00
2013-10-16,66,60,53,61,56,50,95,86,77,30.11,29.92,8,1,10,0.00
2013-10-17,71,64,59,64,61,58,97,90,76,29.92,29.71,10,2,19,0.14
2013-10-18,62,56,45,58,46,42,94,72,49,30.01,29.78,20,4,20,0.01
2013-10-19,61,51,41,54,46,40,97,85,63,30.01,29.77,15,3,17,0.20
2013-10-20,60,50,42,49,40,37,90,70,46,30.09,29.83,11,3,16,0.00
2013-10-21,64,51,37,47,41,36,95,72,42,30.16,29.96,15,3,20,0.00
2013-10-22,59,51,38,50,45,35,93,79,52,29.97,29.81,10,2,15,0.01
2013-10-23,52,44,37,40,36,32,93,75,49,29.85,29.67,11,3,15,0.00
2013-10-24,48,41,37,36,32,28,87,71,49,30.11,29.85,22,4,26,0.00
2013-10-25,50,42,32,37,33,29,91,72,55,30.29,30.10,16,4,18,0.00
2013-10-26,54,43,29,35,31,27,93,65,40,30.29,29.93,18,6,26,0.00
2013-10-27,55,46,35,37,34,31,90,64,45,30.17,29.93,15,4,20,0.00
2013-10-28,59,42,30,41,35,29,96,78,46,30.31,30.16,6,1,9,0.00
2013-10-29,60,45,33,42,38,32,96,79,51,30.41,30.32,5,1,9,0.00
2013-10-30,59,50,41,54,48,39,97,92,80,30.34,30.18,9,1,12,0.01
2013-10-31,66,59,52,60,56,51,98,90,78,30.22,29.78,19,6,24,0.02
2013-11-1,71,64,54,64,57,48,96,78,46,29.77,29.55,33,8,37,0.21
2013-11-2,64,54,48,54,47,40,97,77,51,29.84,29.65,14,2,16,0.01
2013-11-3,51,44,32,43,33,24,88,65,41,30.49,29.84,17,6,21,0.00
2013-11-4,44,35,26,29,24,20,85,64,38,30.66,30.49,8,1,14,0.00
2013-11-5,56,45,33,45,38,28,91,78,63,30.64,30.48,8,2,13,0.00
2013-11-6,63,56,49,52,48,45,87,78,65,30.47,30.06,13,5,20,0.00
2013-11-7,58,53,42,55,47,27,93,80,54,30.05,29.85,15,6,23,0.12
2013-11-8,46,41,35,33,29,26,79,62,50,30.30,30.03,15,4,25,0.00
2013-11-9,50,39,27,35,30,25,92,72,45,30.35,30.00,13,3,17,0.00
2013-11-10,56,46,32,38,32,29,90,61,45,30.17,29.94,23,6,28,0.00
2013-11-11,53,46,35,38,33,29,77,60,46,30.27,30.00,17,6,23,0.00
2013-11-12,50,37,26,37,23,15,79,59,46,30.38,29.97,16,4,21,0.00
2013-11-13,39,32,24,22,19,16,82,61,44,30.46,30.36,13,3,23,0.00
2013-11-14,54,41,28,27,20,14,72,47,21,30.35,30.22,13,4,19,0.00
2013-11-15,58,41,28,35,29,24,88,66,33,30.28,30.18,3,0,6,0.00
2013-11-16,57,48,41,48,44,35,96,86,68,30.34,30.25,7,1,11,0.08
2013-11-17,62,56,49,59,53,48,97,91,80,30.26,29.73,14,4,22,0.01
2013-11-18,62,58,46,59,39,26,95,54,32,29.90,29.66,28,9,32,0.15
2013-11-19,46,41,31,29,26,23,72,56,46,30.39,29.91,19,7,25,0.00
2013-11-20,46,34,25,26,21,16,88,63,30,30.60,30.38,8,1,12,0.00
2013-11-21,49,37,23,42,31,21,91,79,65,30.61,30.41,5,0,6,0.00
2013-11-22,53,49,45,50,46,41,96,89,82,30.40,29.99,5,1,8,0.02
2013-11-23,51,40,28,47,27,9,89,61,44,30.16,30.02,22,7,33,0.00
2013-11-24,29,25,22,13,5,0,62,42,31,30.48,30.17,22,9,32,0.00
2013-11-25,32,27,19,18,13,10,71,58,41,30.56,30.35,10,4,13,0.00
2013-11-26,46,34,32,46,26,14,98,75,46,30.35,29.63,11,3,24,0.89
2013-11-27,52,37,30,51,33,17,97,86,60,29.93,29.49,25,7,34,0.52
2013-11-28,34,30,27,24,19,16,82,65,51,30.50,29.95,20,5,29,0.00
2013-11-29,37,28,21,25,21,19,93,76,53,30.75,30.49,9,1,13,0.00
2013-11-30,37,28,18,27,22,16,92,80,62,30.76,30.40,10,1,10,0.00
2013-12-1,41,33,24,31,28,22,95,82,62,30.39,30.04,6,1,8,0.00
2013-12-2,44,38,33,37,34,31,93,85,71,30.04,29.89,3,0,6,0.00
2013-12-3,51,40,32,38,35,30,94,83,60,30.03,29.90,8,1,9,0.00
2013-12-4,53,44,32,48,40,31,96,84,72,30.12,30.00,6,1,11,0.00
2013-12-5,59,53,49,58,52,48,98,96,94,30.09,29.93,10,3,12,0.00
2013-12-6,60,46,35,59,45,34,97,95,90,30.19,29.87,12,5,18,1.28
2013-12-7,37,34,29,34,29,23,95,82,70,30.55,30.13,12,4,19,0.03
2013-12-8,28,26,25,28,22,17,96,85,67,30.61,30.34,6,2,9,0.00
2013-12-9,34,32,29,33,32,28,98,97,96,30.33,30.04,6,2,10,0.30
2013-12-10,33,29,21,32,27,16,98,91,70,30.20,29.98,8,3,15,0.14
2013-12-11,31,19,8,19,14,5,92,79,56,30.41,30.21,10,2,15,0.05
2013-12-12,25,20,11,19,10,6,93,68,49,30.42,30.22,10,3,17,0.00
2013-12-13,34,26,21,19,15,8,83,61,52,30.35,30.20,14,5,24,0.00
2013-12-14,32,29,24,29,25,19,96,85,70,30.40,29.76,15,5,21,0.00
2013-12-15,38,32,28,35,28,20,96,86,66,29.91,29.63,18,3,26,0.49
2013-12-16,32,25,19,24,14,9,77,64,53,30.24,29.91,13,5,23,0.00
2013-12-17,28,24,18,24,20,15,95,86,63,30.21,29.98,7,2,11,0.00
2013-12-18,36,25,15,24,20,14,95,80,55,30.23,30.00,10,3,18,0.04
2013-12-19,43,30,16,31,24,14,94,81,57,30.22,30.08,7,0,8,0.03
2013-12-20,50,40,32,38,32,28,92,74,54,30.12,29.99,7,1,11,0.00
2013-12-21,62,52,39,57,47,35,90,82,73,30.01,29.89,16,4,29,0.00
2013-12-22,66,62,58,62,59,56,92,89,85,29.97,29.79,27,10,31,0.13
2013-12-23,59,51,36,57,48,28,98,88,71,30.21,29.89,13,4,24,0.65
2013-12-24,36,31,23,29,22,12,90,69,53,30.45,30.18,13,4,24,0.00
2013-12-25,28,24,18,17,13,9,77,64,54,30.58,30.41,9,3,13,0.00
2013-12-26,39,28,23,29,23,17,93,80,59,30.41,30.23,9,3,18,0.02
2013-12-27,45,30,19,27,22,17,94,76,40,30.41,30.31,17,2,17,0.00
2013-12-28,56,39,24,31,27,22,92,66,36,30.32,30.11,11,3,17,0.00
2013-12-29,44,40,35,42,37,30,97,89,60,30.11,29.52,9,3,14,0.86
2013-12-30,43,36,26,39,28,16,96,75,60,30.20,29.79,15,4,21,0.00
2013-12-31,36,28,23,26,18,14,77,66,49,30.33,30.09,13,4,26,0.00
2014-1-1,39,30,20,27,22,15,88,76,60,30.42,30.18,9,3,11,0.00
2014-1-2,32,28,18,27,24,16,95,87,77,30.17,29.69,10,5,15,0.00